createdAt,value
2018-12-23T00:00:21.917Z,79.13
2018-12-23T00:02:51.874Z,79.31
2018-12-23T00:05:21.235Z,79.24
2018-12-23T00:07:50.745Z,79.42
2018-12-23T00:10:20.508Z,79.06
2018-12-23T00:12:49.863Z,78.80
2018-12-23T00:15:19.384Z,78.88
2018-12-23T00:17:49.326Z,79.16
2018-12-23T00:20:18.907Z,79.16
2018-12-23T00:22:48.407Z,79.62
2018-12-23T00:25:18.202Z,79.13
2018-12-23T00:27:47.724Z,78.78
2018-12-23T00:30:17.287Z,78.70
2018-12-23T00:32:46.978Z,79.34
2018-12-23T00:35:20.589Z,79.52
2018-12-23T00:37:46.444Z,79.52
2018-12-23T00:40:16.044Z,79.92
2018-12-23T00:42:45.586Z,79.63
2018-12-23T00:45:15.035Z,79.97
2018-12-23T00:47:44.733Z,80.09
2018-12-23T00:50:14.402Z,80.29
2018-12-23T00:52:44.102Z,80.18
2018-12-23T00:55:14.369Z,80.27
2018-12-23T00:57:43.929Z,79.61
2018-12-23T01:00:13.499Z,79.56
2018-12-23T01:02:42.988Z,79.30
2018-12-23T01:05:12.865Z,79.54
2018-12-23T01:07:42.579Z,79.46
2018-12-23T01:10:12.264Z,80.72
2018-12-23T01:12:42.007Z,79.91
2018-12-23T01:15:11.820Z,79.95
2018-12-23T01:17:41.553Z,80.06
2018-12-23T01:20:11.137Z,79.20
2018-12-23T01:22:40.639Z,79.46
2018-12-23T01:25:10.557Z,79.62
2018-12-23T01:27:39.989Z,79.84
2018-12-23T01:30:09.737Z,80.21
2018-12-23T01:32:39.088Z,80.40
2018-12-23T01:35:08.593Z,80.85
2018-12-23T01:37:38.653Z,80.77
2018-12-23T01:40:08.380Z,80.98
2018-12-23T01:42:38.048Z,80.69
2018-12-23T01:45:07.681Z,81.12
2018-12-23T01:47:37.535Z,80.33
2018-12-23T01:50:07.248Z,80.22
2018-12-23T01:52:36.955Z,79.65
2018-12-23T01:55:07.480Z,79.44
2018-12-23T01:57:37.094Z,79.33
2018-12-23T02:00:07.162Z,79.76
2018-12-23T02:02:37.118Z,79.41
2018-12-23T02:05:06.917Z,79.61
2018-12-23T02:07:36.354Z,79.86
2018-12-23T02:10:06.340Z,79.21
2018-12-23T02:12:36.176Z,79.35
2018-12-23T02:15:06.579Z,78.85
2018-12-23T02:17:36.354Z,79.46
2018-12-23T02:20:06.261Z,79.84
2018-12-23T02:22:35.836Z,79.68
2018-12-23T02:25:05.997Z,79.40
2018-12-23T02:27:35.668Z,79.68
2018-12-23T02:30:05.596Z,79.80
2018-12-23T02:32:35.451Z,79.77
2018-12-23T02:35:05.212Z,80.66
2018-12-23T02:37:34.825Z,80.64
2018-12-23T02:40:04.854Z,80.90
2018-12-23T02:42:34.336Z,80.96
2018-12-23T02:45:03.905Z,81.94
2018-12-23T02:47:33.852Z,81.63
2018-12-23T02:50:03.545Z,81.68
2018-12-23T02:52:33.083Z,82.28
2018-12-23T02:55:03.135Z,82.08
2018-12-23T02:57:32.743Z,82.61
2018-12-23T03:00:02.330Z,82.39
2018-12-23T03:02:32.157Z,82.11
2018-12-23T03:05:02.468Z,83.28
2018-12-23T03:07:32.091Z,83.03
2018-12-23T03:10:01.605Z,83.11
2018-12-23T03:12:31.187Z,82.87
2018-12-23T03:15:00.897Z,83.30
2018-12-23T03:17:30.399Z,83.16
2018-12-23T03:19:59.875Z,83.25
2018-12-23T03:22:29.288Z,83.80
2018-12-23T03:24:59.042Z,83.75
2018-12-23T03:27:28.826Z,83.25
2018-12-23T03:29:58.633Z,83.86
2018-12-23T03:32:28.626Z,84.51
2018-12-23T03:34:58.368Z,84.61
2018-12-23T03:37:28.081Z,85.69
2018-12-23T03:39:57.835Z,86.02
2018-12-23T03:42:27.525Z,86.70
2018-12-23T03:44:56.994Z,86.24
2018-12-23T03:47:26.642Z,85.86
2018-12-23T03:49:56.219Z,85.87
2018-12-23T03:52:25.817Z,83.69
2018-12-23T03:54:55.566Z,80.33
2018-12-23T03:57:24.860Z,80.25
2018-12-23T03:59:54.560Z,80.92
2018-12-23T04:02:24.282Z,80.83
2018-12-23T04:04:53.963Z,81.12
2018-12-23T04:07:23.309Z,81.17
2018-12-23T04:09:52.963Z,82.09
2018-12-23T04:12:22.307Z,82.39
2018-12-23T04:14:51.890Z,81.76
2018-12-23T04:17:21.593Z,81.96
2018-12-23T04:19:51.104Z,82.12
2018-12-23T04:22:20.505Z,81.82
2018-12-23T04:24:50.247Z,82.28
2018-12-23T04:27:19.597Z,82.16
2018-12-23T04:29:49.335Z,82.85
2018-12-23T04:32:19.137Z,82.64
2018-12-23T04:34:48.796Z,82.86
2018-12-23T04:37:18.269Z,82.72
2018-12-23T04:39:48.257Z,82.86
2018-12-23T04:42:17.819Z,83.61
2018-12-23T04:44:47.529Z,83.18
2018-12-23T04:47:17.020Z,83.59
2018-12-23T04:49:46.736Z,83.69
2018-12-23T04:52:16.325Z,83.27
2018-12-23T04:54:45.873Z,82.94
2018-12-23T04:57:15.548Z,82.92
2018-12-23T04:59:45.048Z,82.82
2018-12-23T05:02:14.791Z,82.26
2018-12-23T05:04:44.265Z,81.25
2018-12-23T05:07:13.889Z,81.14
2018-12-23T05:09:43.739Z,81.19
2018-12-23T05:12:13.190Z,80.97
2018-12-23T05:14:44.737Z,80.13
2018-12-23T05:17:12.843Z,80.49
2018-12-23T05:19:42.313Z,81.03
2018-12-23T05:22:11.819Z,81.38
2018-12-23T05:24:41.675Z,81.39
2018-12-23T05:27:11.416Z,82.37
2018-12-23T05:29:41.170Z,82.12
2018-12-23T05:32:10.724Z,82.55
2018-12-23T05:34:40.209Z,82.87
2018-12-23T05:37:09.799Z,82.79
2018-12-23T05:39:39.832Z,83.00
2018-12-23T05:42:09.411Z,83.49
2018-12-23T05:44:39.303Z,82.94
2018-12-23T05:47:08.819Z,83.55
2018-12-23T05:49:38.211Z,83.30
2018-12-23T05:52:07.665Z,82.74
2018-12-23T05:54:37.267Z,83.28
2018-12-23T05:57:06.633Z,83.20
2018-12-23T05:59:36.222Z,82.96
2018-12-23T06:02:06.059Z,82.78
2018-12-23T06:04:35.783Z,82.54
2018-12-23T06:07:05.296Z,82.96
2018-12-23T06:09:35.045Z,82.83
2018-12-23T06:12:04.707Z,82.11
2018-12-23T06:14:34.386Z,82.44
2018-12-23T06:17:03.863Z,82.66
2018-12-23T06:19:33.597Z,82.79
2018-12-23T06:22:03.029Z,83.03
2018-12-23T06:24:32.707Z,83.14
2018-12-23T06:27:02.371Z,82.51
2018-12-23T06:29:32.059Z,82.91
2018-12-23T06:32:02.133Z,82.09
2018-12-23T06:34:31.812Z,81.67
2018-12-23T06:37:09.725Z,82.13
2018-12-23T06:39:30.883Z,82.12
2018-12-23T06:42:00.304Z,81.71
2018-12-23T06:44:30.152Z,81.54
2018-12-23T06:46:59.711Z,81.35
2018-12-23T06:49:29.341Z,82.21
2018-12-23T06:51:59.181Z,82.30
2018-12-23T06:54:28.868Z,82.90
2018-12-23T06:56:58.560Z,82.77
2018-12-23T06:59:28.470Z,83.17
2018-12-23T07:01:58.107Z,83.31
2018-12-23T07:04:27.954Z,83.04
2018-12-23T07:06:57.817Z,82.66
2018-12-23T07:09:27.575Z,83.05
2018-12-23T07:11:57.169Z,82.89
2018-12-23T07:14:27.086Z,81.76
2018-12-23T07:16:56.718Z,81.05
2018-12-23T07:19:26.391Z,80.81
2018-12-23T07:21:55.870Z,80.80
2018-12-23T07:24:26.063Z,81.06
2018-12-23T07:26:55.898Z,80.71
2018-12-23T07:29:25.704Z,80.92
2018-12-23T07:31:55.305Z,79.62
2018-12-23T07:34:24.663Z,78.90
2018-12-23T07:36:54.873Z,79.11
2018-12-23T07:39:24.363Z,78.97
2018-12-23T07:41:53.797Z,78.29
2018-12-23T07:44:23.228Z,78.36
2018-12-23T07:46:52.907Z,78.22
2018-12-23T07:49:22.347Z,77.99
2018-12-23T07:51:52.356Z,76.54
2018-12-23T07:54:21.703Z,76.15
2018-12-23T07:56:51.430Z,75.93
2018-12-23T07:59:20.918Z,75.82
2018-12-23T08:01:50.267Z,74.27
2018-12-23T08:04:19.683Z,73.46
2018-12-23T08:06:49.538Z,72.61
2018-12-23T08:09:19.045Z,72.17
2018-12-23T08:11:48.444Z,71.54
2018-12-23T08:14:18.002Z,70.64
2018-12-23T08:16:47.684Z,69.74
2018-12-23T08:19:17.487Z,69.24
2018-12-23T08:21:47.099Z,68.96
2018-12-23T08:24:17.120Z,68.29
2018-12-23T08:26:46.690Z,68.48
2018-12-23T08:29:16.277Z,68.06
2018-12-23T08:31:45.965Z,67.08
2018-12-23T08:34:15.539Z,66.78
2018-12-23T08:36:45.167Z,65.79
2018-12-23T08:39:15.103Z,64.97
2018-12-23T08:41:44.572Z,63.93
2018-12-23T08:44:14.071Z,62.65
2018-12-23T08:46:44.031Z,61.55
2018-12-23T08:49:16.683Z,60.80
2018-12-23T08:51:46.408Z,60.08
2018-12-23T08:54:16.146Z,59.21
2018-12-23T08:56:45.810Z,59.94
2018-12-23T08:59:15.537Z,59.59
2018-12-23T09:01:45.131Z,59.60
2018-12-23T09:04:14.728Z,59.51
2018-12-23T09:06:44.680Z,58.30
2018-12-23T09:09:14.107Z,57.83
2018-12-23T09:11:43.778Z,57.27
2018-12-23T09:14:13.530Z,57.13
2018-12-23T09:16:42.871Z,56.96
2018-12-23T09:19:12.558Z,57.21
2018-12-23T09:21:42.290Z,57.68
2018-12-23T09:24:11.908Z,56.79
2018-12-23T09:26:41.907Z,56.58
2018-12-23T09:29:11.867Z,56.86
2018-12-23T09:31:41.567Z,56.77
2018-12-23T09:34:11.288Z,56.07
2018-12-23T09:36:40.737Z,56.05
2018-12-23T09:39:10.583Z,57.01
2018-12-23T09:41:40.384Z,57.40
2018-12-23T09:44:10.027Z,59.00
2018-12-23T09:46:39.670Z,59.23
2018-12-23T09:49:09.171Z,59.13
2018-12-23T09:51:38.742Z,57.33
2018-12-23T09:54:08.370Z,57.40
2018-12-23T09:56:37.853Z,58.33
2018-12-23T09:59:07.504Z,56.74
2018-12-23T10:01:37.079Z,56.68
2018-12-23T10:04:06.656Z,57.13
2018-12-23T10:06:36.265Z,56.92
2018-12-23T10:09:06.936Z,57.47
2018-12-23T10:11:36.963Z,56.63
2018-12-23T10:14:06.432Z,56.56
2018-12-23T10:16:35.935Z,56.68
2018-12-23T10:19:05.842Z,57.66
2018-12-23T10:21:35.451Z,58.66
2018-12-23T10:24:05.181Z,58.53
2018-12-23T10:26:35.055Z,58.13
2018-12-23T10:29:04.700Z,58.64
2018-12-23T10:31:34.251Z,58.86
2018-12-23T10:34:03.836Z,59.13
2018-12-23T10:36:33.575Z,59.17
2018-12-23T10:39:03.201Z,59.23
2018-12-23T10:41:32.779Z,59.23
2018-12-23T10:44:02.236Z,59.82
2018-12-23T10:46:31.872Z,59.70
2018-12-23T10:49:01.891Z,59.56
2018-12-23T10:51:31.598Z,59.27
2018-12-23T10:54:01.391Z,59.17
2018-12-23T10:56:31.032Z,59.03
2018-12-23T10:59:00.600Z,59.47
2018-12-23T11:01:30.221Z,58.32
2018-12-23T11:03:59.813Z,57.94
2018-12-23T11:06:29.321Z,57.77
2018-12-23T11:08:59.139Z,57.12
2018-12-23T11:11:28.563Z,57.34
2018-12-23T11:13:58.064Z,57.90
2018-12-23T11:16:27.750Z,58.82
2018-12-23T11:18:57.681Z,58.36
2018-12-23T11:21:27.494Z,57.15
2018-12-23T11:23:56.979Z,55.26
2018-12-23T11:26:26.622Z,52.79
2018-12-23T11:28:56.311Z,50.77
2018-12-23T11:31:25.948Z,49.76
2018-12-23T11:33:55.397Z,49.05
2018-12-23T11:36:25.054Z,46.00
2018-12-23T11:38:54.678Z,44.44
2018-12-23T11:41:26.542Z,42.91
2018-12-23T11:43:55.887Z,40.60
2018-12-23T11:46:25.518Z,42.01
2018-12-23T11:48:55.143Z,42.13
2018-12-23T11:51:24.529Z,40.39
2018-12-23T11:53:54.127Z,40.26
2018-12-23T11:56:23.489Z,39.42
2018-12-23T11:58:53.310Z,38.99
2018-12-23T12:01:22.746Z,36.34
2018-12-23T12:03:52.339Z,37.55
2018-12-23T12:06:21.743Z,37.81
2018-12-23T12:08:51.390Z,36.18
2018-12-23T12:11:20.832Z,37.17
2018-12-23T12:13:50.394Z,36.98
2018-12-23T12:16:19.987Z,39.00
2018-12-23T12:18:49.863Z,37.66
2018-12-23T12:21:19.519Z,38.79
2018-12-23T12:23:49.028Z,38.47
2018-12-23T12:26:18.786Z,36.55
2018-12-23T12:28:48.345Z,38.08
2018-12-23T12:31:17.818Z,40.99
2018-12-23T12:33:47.363Z,40.68
2018-12-23T12:36:16.982Z,38.08
2018-12-23T12:38:52.166Z,37.37
2018-12-23T12:41:17.299Z,37.02
2018-12-23T12:43:46.921Z,38.14
2018-12-23T12:46:16.810Z,41.01
2018-12-23T12:48:46.804Z,44.21
2018-12-23T12:51:16.344Z,47.22
2018-12-23T12:53:46.072Z,49.39
2018-12-23T12:56:15.561Z,50.37
2018-12-23T12:58:45.063Z,51.00
2018-12-23T13:01:14.712Z,51.57
2018-12-23T13:03:44.411Z,52.06
2018-12-23T13:06:14.141Z,52.70
2018-12-23T13:08:43.910Z,52.74
2018-12-23T13:11:13.675Z,53.54
2018-12-23T13:13:43.343Z,53.57
2018-12-23T13:16:13.057Z,53.66
2018-12-23T13:18:42.576Z,54.96
2018-12-23T13:21:12.063Z,54.85
2018-12-23T13:23:41.671Z,56.51
2018-12-23T13:26:11.210Z,55.17
2018-12-23T13:28:40.691Z,54.94
2018-12-23T13:31:10.399Z,55.59
2018-12-23T13:33:40.300Z,55.45
2018-12-23T13:36:09.997Z,55.43
2018-12-23T13:38:39.531Z,54.60
2018-12-23T13:41:16.643Z,54.97
2018-12-23T13:45:59.461Z,54.74
2018-12-23T13:48:47.115Z,54.88
2018-12-23T13:52:00.445Z,55.41
2018-12-23T13:56:44.481Z,54.80
2018-12-23T13:59:22.836Z,54.99
2018-12-23T14:03:03.784Z,55.55
2018-12-23T14:05:59.844Z,54.96
2018-12-23T14:08:44.671Z,54.88
2018-12-23T14:12:19.227Z,54.25
2018-12-23T14:14:48.689Z,54.71
2018-12-23T14:17:18.093Z,54.98
2018-12-23T14:19:47.496Z,54.94
2018-12-23T14:22:17.136Z,54.13
2018-12-23T14:24:46.607Z,54.07
2018-12-23T14:27:16.259Z,54.35
2018-12-23T14:29:46.084Z,54.25
2018-12-23T14:32:15.706Z,55.02
2018-12-23T14:34:45.560Z,54.64
2018-12-23T14:37:15.308Z,54.32
2018-12-23T14:39:45.027Z,54.68
2018-12-23T14:42:15.802Z,55.09
2018-12-23T14:44:45.187Z,55.30
2018-12-23T14:47:15.141Z,54.91
2018-12-23T14:49:44.403Z,55.62
2018-12-23T14:52:14.313Z,55.39
2018-12-23T14:54:43.982Z,55.48
2018-12-23T14:57:13.439Z,55.86
2018-12-23T14:59:43.922Z,55.58
2018-12-23T15:02:13.600Z,55.58
2018-12-23T15:04:47.347Z,55.99
2018-12-23T15:07:17.069Z,56.05
2018-12-23T15:09:46.546Z,56.42
2018-12-23T15:12:15.962Z,56.03
2018-12-23T15:14:45.431Z,56.85
2018-12-23T15:17:15.161Z,56.89
2018-12-23T15:19:44.984Z,57.32
2018-12-23T15:22:14.465Z,58.19
2018-12-23T15:24:44.181Z,56.82
2018-12-23T15:27:14.125Z,56.94
2018-12-23T15:29:43.754Z,57.53
2018-12-23T15:32:13.510Z,57.05
2018-12-23T15:34:43.363Z,57.61
2018-12-23T15:37:13.029Z,57.78
2018-12-23T15:39:43.003Z,57.39
2018-12-23T15:42:12.710Z,56.97
2018-12-23T15:44:42.490Z,57.08
2018-12-23T15:47:12.137Z,57.38
2018-12-23T15:49:41.746Z,57.46
2018-12-23T15:52:11.205Z,57.81
2018-12-23T15:54:46.210Z,57.80
2018-12-23T15:57:10.575Z,57.86
2018-12-23T15:59:39.996Z,58.01
2018-12-23T16:02:09.751Z,57.88
2018-12-23T16:04:39.790Z,58.09
2018-12-23T16:07:09.475Z,58.21
2018-12-23T16:09:39.062Z,57.92
2018-12-23T16:12:10.354Z,58.69
2018-12-23T16:14:42.082Z,58.82
2018-12-23T16:17:11.789Z,58.69
2018-12-23T16:19:42.110Z,58.58
2018-12-23T16:22:11.506Z,59.20
2018-12-23T16:24:46.849Z,59.02
2018-12-23T16:27:16.459Z,59.20
2018-12-23T16:29:46.160Z,59.62
2018-12-23T16:32:16.227Z,59.44
2018-12-23T16:34:45.790Z,59.51
2018-12-23T16:37:15.524Z,59.21
2018-12-23T16:39:45.451Z,59.55
2018-12-23T16:42:15.048Z,59.50
2018-12-23T16:44:45.066Z,59.83
2018-12-23T16:47:14.594Z,59.95
2018-12-23T16:49:44.264Z,59.52
2018-12-23T16:52:13.794Z,59.94
2018-12-23T16:54:43.623Z,59.92
2018-12-23T16:57:13.321Z,60.08
2018-12-23T16:59:42.852Z,59.11
2018-12-23T17:02:12.508Z,59.17
2018-12-23T17:04:42.128Z,58.82
2018-12-23T17:07:11.734Z,59.01
2018-12-23T17:09:41.772Z,58.83
2018-12-23T17:12:11.325Z,58.85
2018-12-23T17:14:41.045Z,58.29
2018-12-23T17:17:10.730Z,58.43
2018-12-23T17:19:40.638Z,58.75
2018-12-23T17:22:10.132Z,58.19
2018-12-23T17:24:39.810Z,58.06
2018-12-23T17:27:09.288Z,57.99
2018-12-23T17:29:39.257Z,58.01
2018-12-23T17:32:08.683Z,58.67
2018-12-23T17:34:38.267Z,58.17
2018-12-23T17:37:08.051Z,58.40
2018-12-23T17:39:37.790Z,58.63
2018-12-23T17:42:07.378Z,58.20
2018-12-23T17:44:37.410Z,58.53
2018-12-23T17:47:06.901Z,58.55
2018-12-23T17:49:36.616Z,59.06
2018-12-23T17:52:06.348Z,58.93
2018-12-23T17:54:36.010Z,58.78
2018-12-23T17:57:05.532Z,58.46
2018-12-23T17:59:35.165Z,58.43
2018-12-23T18:02:04.844Z,58.75
2018-12-23T18:04:34.577Z,58.64
2018-12-23T18:07:05.178Z,59.29
2018-12-23T18:09:34.685Z,58.72
2018-12-23T18:12:04.627Z,58.98
2018-12-23T18:14:34.269Z,59.23
2018-12-23T18:17:03.865Z,59.33
2018-12-23T18:19:33.671Z,58.85
2018-12-23T18:22:03.591Z,58.72
2018-12-23T18:24:33.044Z,59.94
2018-12-23T18:27:02.696Z,58.95
2018-12-23T18:29:32.514Z,58.66
2018-12-23T18:32:02.221Z,58.77
2018-12-23T18:34:31.977Z,59.19
2018-12-23T18:37:01.555Z,58.68
2018-12-23T18:39:31.015Z,58.92
2018-12-23T18:42:00.743Z,59.20
2018-12-23T18:44:30.560Z,59.29
2018-12-23T18:47:00.282Z,60.12
2018-12-23T18:49:30.551Z,59.47
2018-12-23T18:52:00.063Z,60.35
2018-12-23T18:54:29.841Z,61.19
2018-12-23T18:57:04.835Z,61.73
2018-12-23T18:59:38.098Z,62.90
2018-12-23T19:02:11.023Z,62.89
2018-12-23T19:04:40.861Z,62.93
2018-12-23T19:07:10.272Z,63.56
2018-12-23T19:09:49.609Z,64.49
2018-12-23T19:12:49.778Z,64.40
2018-12-23T19:16:39.854Z,65.57
2018-12-23T19:21:29.460Z,65.67
2018-12-23T19:24:26.394Z,66.20
2018-12-23T19:27:17.797Z,65.86
2018-12-23T19:30:07.366Z,66.31
2018-12-23T19:33:07.384Z,65.98
2018-12-23T19:37:52.163Z,66.66
2018-12-23T19:41:38.356Z,66.48
2018-12-23T19:44:18.722Z,67.81
2018-12-23T19:47:11.933Z,67.52
2018-12-23T19:49:51.853Z,68.86
2018-12-23T19:54:39.827Z,68.43
2018-12-23T19:57:40.735Z,68.49
2018-12-23T20:00:20.000Z,69.56
2018-12-23T20:03:01.966Z,69.25
2018-12-23T20:06:58.160Z,68.28
2018-12-23T20:09:43.219Z,68.81
2018-12-23T20:12:38.752Z,68.70
2018-12-23T20:15:23.158Z,68.85
2018-12-23T20:18:24.532Z,68.72
2018-12-23T20:21:38.757Z,68.83
2018-12-23T20:24:52.604Z,69.48
2018-12-23T20:28:07.229Z,69.79
2018-12-23T20:30:54.347Z,70.06
2018-12-23T20:34:40.422Z,69.56
2018-12-23T20:37:31.706Z,69.86
2018-12-23T20:40:12.164Z,70.45
2018-12-23T20:42:51.295Z,70.32
2018-12-23T20:46:37.665Z,69.97
2018-12-23T20:50:03.359Z,70.13
2018-12-23T20:53:50.728Z,69.55
2018-12-23T20:57:26.376Z,70.65
2018-12-23T21:00:16.670Z,70.13
2018-12-23T21:05:05.874Z,70.77
2018-12-23T21:07:52.159Z,70.72
2018-12-23T21:13:47.128Z,70.41
2018-12-23T21:16:32.481Z,71.18
2018-12-23T21:20:10.938Z,71.48
2018-12-23T21:22:54.439Z,70.56
2018-12-23T21:26:44.519Z,71.00
2018-12-23T21:29:55.616Z,73.01
2018-12-23T21:32:34.969Z,73.81
2018-12-23T21:35:17.411Z,73.77
2018-12-23T21:38:15.714Z,74.75
2018-12-23T21:41:56.054Z,74.57
2018-12-23T21:45:40.433Z,74.23
2018-12-23T21:48:35.760Z,74.02
2018-12-23T21:52:15.505Z,74.12
2018-12-23T21:55:37.255Z,73.78
2018-12-23T22:00:19.495Z,74.01
2018-12-23T22:02:59.368Z,75.41
2018-12-23T22:06:45.836Z,74.26
2018-12-23T22:09:32.026Z,73.58
2018-12-23T22:14:10.063Z,74.25
2018-12-23T22:16:39.804Z,74.20
2018-12-23T22:19:09.468Z,74.08
2018-12-23T22:21:39.203Z,73.66
2018-12-23T22:24:08.779Z,74.02
2018-12-23T22:26:38.263Z,74.10
2018-12-23T22:29:07.849Z,74.78
2018-12-23T22:31:38.592Z,74.54
2018-12-23T22:34:08.127Z,75.89
2018-12-23T22:36:37.692Z,76.17
2018-12-23T22:39:08.199Z,75.71
2018-12-23T22:41:41.289Z,76.68
2018-12-23T22:44:07.415Z,77.19
2018-12-23T22:46:36.787Z,77.36
2018-12-23T22:49:06.608Z,77.56
2018-12-23T22:51:36.137Z,77.70
2018-12-23T22:54:05.605Z,77.78
2018-12-23T22:56:35.312Z,77.56
2018-12-23T22:59:05.116Z,77.48
2018-12-23T23:01:34.508Z,76.57
2018-12-23T23:04:04.275Z,77.06
2018-12-23T23:06:34.295Z,77.25
2018-12-23T23:09:04.544Z,76.82
2018-12-23T23:11:34.849Z,77.51
2018-12-23T23:14:04.628Z,77.00
2018-12-23T23:16:34.802Z,76.79
2018-12-23T23:19:04.225Z,77.66
2018-12-23T23:21:33.656Z,77.87
2018-12-23T23:24:03.379Z,78.85
2018-12-23T23:26:33.003Z,77.17
2018-12-23T23:29:02.354Z,76.42
2018-12-23T23:31:31.724Z,76.02
2018-12-23T23:34:01.522Z,75.70
2018-12-23T23:36:31.014Z,75.45
2018-12-23T23:39:00.709Z,75.65
2018-12-23T23:41:30.280Z,75.43
2018-12-23T23:44:02.225Z,76.12
2018-12-23T23:46:29.911Z,75.50
2018-12-23T23:48:59.341Z,75.57
2018-12-23T23:51:29.052Z,75.32
2018-12-23T23:53:59.129Z,75.48
2018-12-23T23:56:28.591Z,75.47
2018-12-23T23:58:58.070Z,75.42
